sensor_id;sensor_type;location;lat;lon;timestamp;temperature;humidity
5358;DHT22;2702;51.014;7.170;2023-04-01T00:02:08;9.50;99.90
5358;DHT22;2702;51.014;7.170;2023-04-01T00:04:33;9.40;99.90
5358;DHT22;2702;51.014;7.170;2023-04-01T00:07:00;9.50;99.90
5358;DHT22;2702;51.014;7.170;2023-04-01T00:09:27;9.40;99.90
5358;DHT22;2702;51.014;7.170;2023-04-01T00:11:53;9.40;99.90
5358;DHT22;2702;51.014;7.170;2023-04-01T00:14:18;9.40;99.90
5358;DHT22;2702;51.014;7.170;2023-04-01T00:16:44;9.40;99.90
5358;DHT22;2702;51.014;7.170;2023-04-01T00:19:10;9.40;99.90
5358;DHT22;2702;51.014;7.170;2023-04-01T00:21:36;9.40;99.90
5358;DHT22;2702;51.014;7.170;2023-04-01T00:24:02;9.50;99.90
5358;DHT22;2702;51.014;7.170;2023-04-01T00:26:28;9.40;99.90
5358;DHT22;2702;51.014;7.170;2023-04-01T00:28:54;9.40;99.90
5358;DHT22;2702;51.014;7.170;2023-04-01T00:31:20;9.40;99.90
5358;DHT22;2702;51.014;7.170;2023-04-01T00:33:46;9.40;99.90
5358;DHT22;2702;51.014;7.170;2023-04-01T00:36:18;9.40;99.90
5358;DHT22;2702;51.014;7.170;2023-04-01T00:38:44;9.50;99.90
5358;DHT22;2702;51.014;7.170;2023-04-01T00:41:12;9.50;99.90
5358;DHT22;2702;51.014;7.170;2023-04-01T00:43:41;9.50;99.90
5358;DHT22;2702;51.014;7.170;2023-04-01T00:46:07;9.50;99.90
5358;DHT22;2702;51.014;7.170;2023-04-01T00:48:38;9.50;99.90
5358;DHT22;2702;51.014;7.170;2023-04-01T00:51:16;9.50;99.90
5358;DHT22;2702;51.014;7.170;2023-04-01T00:53:48;9.60;99.90
5358;DHT22;2702;51.014;7.170;2023-04-01T00:56:40;9.50;99.90
5358;DHT22;2702;51.014;7.170;2023-04-01T00:59:11;9.50;99.90
5358;DHT22;2702;51.014;7.170;2023-04-01T01:01:38;9.50;99.90
5358;DHT22;2702;51.014;7.170;2023-04-01T01:04:05;9.50;99.90
5358;DHT22;2702;51.014;7.170;2023-04-01T01:06:50;9.50;99.90
5358;DHT22;2702;51.014;7.170;2023-04-01T01:12:16;9.50;99.90
5358;DHT22;2702;51.014;7.170;2023-04-01T01:37:05;9.50;99.90
5358;DHT22;2702;51.014;7.170;2023-04-01T01:39:35;9.40;99.90
5358;DHT22;2702;51.014;7.170;2023-04-01T01:42:05;9.40;99.90
5358;DHT22;2702;51.014;7.170;2023-04-01T01:44:32;9.50;99.90
5358;DHT22;2702;51.014;7.170;2023-04-01T01:47:00;9.40;99.90
5358;DHT22;2702;51.014;7.170;2023-04-01T01:49:28;9.40;99.90
5358;DHT22;2702;51.014;7.170;2023-04-01T01:51:56;9.40;99.90
5358;DHT22;2702;51.014;7.170;2023-04-01T01:54:22;9.50;99.90
5358;DHT22;2702;51.014;7.170;2023-04-01T01:56:51;9.50;99.90
5358;DHT22;2702;51.014;7.170;2023-04-01T01:59:21;9.50;99.90
5358;DHT22;2702;51.014;7.170;2023-04-01T02:01:50;9.50;99.90
5358;DHT22;2702;51.014;7.170;2023-04-01T02:04:19;9.50;99.90
5358;DHT22;2702;51.014;7.170;2023-04-01T02:06:58;9.50;99.90
5358;DHT22;2702;51.014;7.170;2023-04-01T02:09:26;9.50;99.90
5358;DHT22;2702;51.014;7.170;2023-04-01T02:11:52;9.40;99.90
5358;DHT22;2702;51.014;7.170;2023-04-01T02:14:28;9.40;99.90
5358;DHT22;2702;51.014;7.170;2023-04-01T02:17:13;9.40;99.90
5358;DHT22;2702;51.014;7.170;2023-04-01T02:22:44;9.40;99.90
5358;DHT22;2702;51.014;7.170;2023-04-01T02:25:14;9.30;99.90
5358;DHT22;2702;51.014;7.170;2023-04-01T02:27:43;9.20;99.90
5358;DHT22;2702;51.014;7.170;2023-04-01T02:30:11;9.20;99.90
5358;DHT22;2702;51.014;7.170;2023-04-01T02:32:39;9.20;99.90
5358;DHT22;2702;51.014;7.170;2023-04-01T02:35:09;9.20;99.90
5358;DHT22;2702;51.014;7.170;2023-04-01T02:37:36;9.30;99.90
5358;DHT22;2702;51.014;7.170;2023-04-01T02:40:07;9.20;99.90
5358;DHT22;2702;51.014;7.170;2023-04-01T02:42:35;9.20;99.90
5358;DHT22;2702;51.014;7.170;2023-04-01T02:45:01;9.20;99.90
5358;DHT22;2702;51.014;7.170;2023-04-01T02:47:27;9.10;99.90
5358;DHT22;2702;51.014;7.170;2023-04-01T02:49:53;9.10;99.90
5358;DHT22;2702;51.014;7.170;2023-04-01T02:52:24;9.00;99.90
5358;DHT22;2702;51.014;7.170;2023-04-01T02:54:50;9.00;99.90
5358;DHT22;2702;51.014;7.170;2023-04-01T02:57:17;9.00;99.90
5358;DHT22;2702;51.014;7.170;2023-04-01T02:59:42;9.00;99.90
5358;DHT22;2702;51.014;7.170;2023-04-01T03:02:08;9.00;99.90
5358;DHT22;2702;51.014;7.170;2023-04-01T03:04:34;9.00;99.90
5358;DHT22;2702;51.014;7.170;2023-04-01T03:07:00;9.00;99.90
5358;DHT22;2702;51.014;7.170;2023-04-01T03:09:26;8.90;99.90
5358;DHT22;2702;51.014;7.170;2023-04-01T03:11:54;9.00;99.90
5358;DHT22;2702;51.014;7.170;2023-04-01T03:14:20;8.90;99.90
5358;DHT22;2702;51.014;7.170;2023-04-01T03:16:46;8.90;99.90
5358;DHT22;2702;51.014;7.170;2023-04-01T03:19:12;8.90;99.90
5358;DHT22;2702;51.014;7.170;2023-04-01T03:21:38;8.80;99.90
5358;DHT22;2702;51.014;7.170;2023-04-01T03:24:04;8.80;99.90
5358;DHT22;2702;51.014;7.170;2023-04-01T03:26:31;8.90;99.90
5358;DHT22;2702;51.014;7.170;2023-04-01T03:28:56;8.90;99.90
5358;DHT22;2702;51.014;7.170;2023-04-01T03:31:22;8.80;99.90
5358;DHT22;2702;51.014;7.170;2023-04-01T03:33:48;8.80;99.90
5358;DHT22;2702;51.014;7.170;2023-04-01T03:36:14;8.80;99.90
5358;DHT22;2702;51.014;7.170;2023-04-01T03:38:41;8.80;99.90
5358;DHT22;2702;51.014;7.170;2023-04-01T03:41:07;8.80;99.90
5358;DHT22;2702;51.014;7.170;2023-04-01T03:43:33;8.80;99.90
5358;DHT22;2702;51.014;7.170;2023-04-01T03:45:59;8.80;99.90
5358;DHT22;2702;51.014;7.170;2023-04-01T03:48:25;8.80;99.90
5358;DHT22;2702;51.014;7.170;2023-04-01T03:50:51;8.90;99.90
5358;DHT22;2702;51.014;7.170;2023-04-01T03:53:17;8.80;99.90
5358;DHT22;2702;51.014;7.170;2023-04-01T03:55:43;8.90;99.90
5358;DHT22;2702;51.014;7.170;2023-04-01T03:58:09;8.80;99.90
5358;DHT22;2702;51.014;7.170;2023-04-01T04:00:35;8.90;99.90
5358;DHT22;2702;51.014;7.170;2023-04-01T04:03:01;8.90;99.90
5358;DHT22;2702;51.014;7.170;2023-04-01T04:05:28;8.90;99.90
5358;DHT22;2702;51.014;7.170;2023-04-01T04:07:54;8.90;99.90
5358;DHT22;2702;51.014;7.170;2023-04-01T04:10:21;8.90;99.90
5358;DHT22;2702;51.014;7.170;2023-04-01T04:12:49;9.00;99.90
5358;DHT22;2702;51.014;7.170;2023-04-01T04:15:15;9.00;99.90
5358;DHT22;2702;51.014;7.170;2023-04-01T04:17:41;9.00;99.90
5358;DHT22;2702;51.014;7.170;2023-04-01T04:20:08;9.00;99.90
5358;DHT22;2702;51.014;7.170;2023-04-01T04:22:34;9.00;99.90
5358;DHT22;2702;51.014;7.170;2023-04-01T04:25:00;9.00;99.90
5358;DHT22;2702;51.014;7.170;2023-04-01T04:27:26;9.00;99.90
5358;DHT22;2702;51.014;7.170;2023-04-01T04:29:52;9.00;99.90
5358;DHT22;2702;51.014;7.170;2023-04-01T04:32:17;9.00;99.90
5358;DHT22;2702;51.014;7.170;2023-04-01T04:34:43;9.00;99.90
5358;DHT22;2702;51.014;7.170;2023-04-01T04:37:09;9.00;99.90
5358;DHT22;2702;51.014;7.170;2023-04-01T04:39:35;9.00;99.90
5358;DHT22;2702;51.014;7.170;2023-04-01T04:42:01;9.00;99.90
5358;DHT22;2702;51.014;7.170;2023-04-01T04:44:27;9.00;99.90
5358;DHT22;2702;51.014;7.170;2023-04-01T04:46:53;9.00;99.90
5358;DHT22;2702;51.014;7.170;2023-04-01T04:49:18;9.10;99.90
5358;DHT22;2702;51.014;7.170;2023-04-01T04:51:44;9.10;99.90
5358;DHT22;2702;51.014;7.170;2023-04-01T04:54:11;9.10;99.90
5358;DHT22;2702;51.014;7.170;2023-04-01T04:56:36;9.10;99.90
5358;DHT22;2702;51.014;7.170;2023-04-01T04:59:02;9.10;99.90
5358;DHT22;2702;51.014;7.170;2023-04-01T05:01:28;9.10;99.90
5358;DHT22;2702;51.014;7.170;2023-04-01T05:03:54;9.10;99.90
5358;DHT22;2702;51.014;7.170;2023-04-01T05:06:21;9.20;99.90
5358;DHT22;2702;51.014;7.170;2023-04-01T05:08:47;9.20;99.90
5358;DHT22;2702;51.014;7.170;2023-04-01T05:11:16;9.20;99.90
5358;DHT22;2702;51.014;7.170;2023-04-01T05:13:43;9.20;99.90
5358;DHT22;2702;51.014;7.170;2023-04-01T05:16:12;9.20;99.90
5358;DHT22;2702;51.014;7.170;2023-04-01T05:18:38;9.20;99.90
5358;DHT22;2702;51.014;7.170;2023-04-01T05:21:07;9.10;99.90
5358;DHT22;2702;51.014;7.170;2023-04-01T05:23:33;9.10;99.90
5358;DHT22;2702;51.014;7.170;2023-04-01T05:26:06;9.10;99.90
5358;DHT22;2702;51.014;7.170;2023-04-01T05:28:32;9.10;99.90
5358;DHT22;2702;51.014;7.170;2023-04-01T05:30:59;9.00;99.90
5358;DHT22;2702;51.014;7.170;2023-04-01T05:33:27;9.00;99.90
5358;DHT22;2702;51.014;7.170;2023-04-01T05:35:53;9.00;99.90
5358;DHT22;2702;51.014;7.170;2023-04-01T05:38:19;9.10;99.90
5358;DHT22;2702;51.014;7.170;2023-04-01T05:40:48;9.10;99.90
5358;DHT22;2702;51.014;7.170;2023-04-01T05:43:14;9.00;99.90
5358;DHT22;2702;51.014;7.170;2023-04-01T05:45:40;9.10;99.90
5358;DHT22;2702;51.014;7.170;2023-04-01T05:48:06;9.10;99.90
5358;DHT22;2702;51.014;7.170;2023-04-01T05:50:32;9.20;99.90
5358;DHT22;2702;51.014;7.170;2023-04-01T05:52:58;9.20;99.90
5358;DHT22;2702;51.014;7.170;2023-04-01T05:55:24;9.20;99.90
5358;DHT22;2702;51.014;7.170;2023-04-01T05:57:50;9.20;99.90
5358;DHT22;2702;51.014;7.170;2023-04-01T06:00:17;9.20;99.90
5358;DHT22;2702;51.014;7.170;2023-04-01T06:02:44;9.20;99.90
5358;DHT22;2702;51.014;7.170;2023-04-01T06:05:23;9.30;99.90
5358;DHT22;2702;51.014;7.170;2023-04-01T06:07:59;9.20;99.90
5358;DHT22;2702;51.014;7.170;2023-04-01T06:11:04;9.20;99.90
5358;DHT22;2702;51.014;7.170;2023-04-01T06:19:22;9.30;99.90
5358;DHT22;2702;51.014;7.170;2023-04-01T06:36:14;9.20;99.90
5358;DHT22;2702;51.014;7.170;2023-04-01T06:41:42;9.20;99.90
5358;DHT22;2702;51.014;7.170;2023-04-01T06:44:44;9.20;99.90
5358;DHT22;2702;51.014;7.170;2023-04-01T06:48:05;9.30;99.90
5358;DHT22;2702;51.014;7.170;2023-04-01T06:53:22;9.40;99.90
5358;DHT22;2702;51.014;7.170;2023-04-01T06:55:57;9.40;99.90
5358;DHT22;2702;51.014;7.170;2023-04-01T06:58:29;9.40;99.90
5358;DHT22;2702;51.014;7.170;2023-04-01T07:01:02;9.40;99.90
5358;DHT22;2702;51.014;7.170;2023-04-01T07:03:49;9.50;99.90
5358;DHT22;2702;51.014;7.170;2023-04-01T07:06:30;9.50;99.90
5358;DHT22;2702;51.014;7.170;2023-04-01T07:09:00;9.50;99.90
5358;DHT22;2702;51.014;7.170;2023-04-01T07:11:31;9.40;99.90
5358;DHT22;2702;51.014;7.170;2023-04-01T07:14:02;9.40;99.90
5358;DHT22;2702;51.014;7.170;2023-04-01T07:16:33;9.40;99.90
5358;DHT22;2702;51.014;7.170;2023-04-01T07:19:17;9.40;99.90
5358;DHT22;2702;51.014;7.170;2023-04-01T07:21:55;9.40;99.90
5358;DHT22;2702;51.014;7.170;2023-04-01T07:24:26;9.30;99.90
5358;DHT22;2702;51.014;7.170;2023-04-01T07:26:55;9.30;99.90
5358;DHT22;2702;51.014;7.170;2023-04-01T07:29:21;9.30;99.90
5358;DHT22;2702;51.014;7.170;2023-04-01T07:34:25;9.30;99.90
5358;DHT22;2702;51.014;7.170;2023-04-01T07:45:13;9.30;99.90
5358;DHT22;2702;51.014;7.170;2023-04-01T07:50:34;9.40;99.90
5358;DHT22;2702;51.014;7.170;2023-04-01T07:58:25;9.30;99.90
5358;DHT22;2702;51.014;7.170;2023-04-01T08:01:22;9.10;99.90
5358;DHT22;2702;51.014;7.170;2023-04-01T08:16:08;8.80;99.90
5358;DHT22;2702;51.014;7.170;2023-04-01T08:18:39;8.80;99.90
5358;DHT22;2702;51.014;7.170;2023-04-01T08:21:21;8.70;99.90
5358;DHT22;2702;51.014;7.170;2023-04-01T08:23:52;8.70;99.90
5358;DHT22;2702;51.014;7.170;2023-04-01T08:26:35;8.70;99.90
5358;DHT22;2702;51.014;7.170;2023-04-01T08:29:26;8.90;99.90
5358;DHT22;2702;51.014;7.170;2023-04-01T08:32:19;8.90;99.90
5358;DHT22;2702;51.014;7.170;2023-04-01T08:34:50;8.80;99.90
5358;DHT22;2702;51.014;7.170;2023-04-01T08:37:24;8.80;99.90
5358;DHT22;2702;51.014;7.170;2023-04-01T08:39:55;8.80;99.90
5358;DHT22;2702;51.014;7.170;2023-04-01T08:45:21;8.70;99.90
5358;DHT22;2702;51.014;7.170;2023-04-01T08:50:59;8.70;99.90
5358;DHT22;2702;51.014;7.170;2023-04-01T08:56:23;8.90;99.90
5358;DHT22;2702;51.014;7.170;2023-04-01T09:09:45;8.90;99.90
5358;DHT22;2702;51.014;7.170;2023-04-01T09:18:12;8.90;99.90
5358;DHT22;2702;51.014;7.170;2023-04-01T09:21:03;8.90;99.90
5358;DHT22;2702;51.014;7.170;2023-04-01T09:23:40;8.90;99.90
5358;DHT22;2702;51.014;7.170;2023-04-01T09:34:53;9.00;99.90
5358;DHT22;2702;51.014;7.170;2023-04-01T09:51:27;9.10;99.90
5358;DHT22;2702;51.014;7.170;2023-04-01T09:56:52;9.10;99.90
5358;DHT22;2702;51.014;7.170;2023-04-01T10:07:36;9.10;99.90
5358;DHT22;2702;51.014;7.170;2023-04-01T10:19:10;9.10;99.90
5358;DHT22;2702;51.014;7.170;2023-04-01T10:22:16;9.00;99.90
5358;DHT22;2702;51.014;7.170;2023-04-01T10:30:37;9.00;99.90
5358;DHT22;2702;51.014;7.170;2023-04-01T11:19:08;9.10;99.90
5358;DHT22;2702;51.014;7.170;2023-04-01T11:22:15;9.20;99.90
5358;DHT22;2702;51.014;7.170;2023-04-01T11:34:16;9.30;99.90
5358;DHT22;2702;51.014;7.170;2023-04-01T11:42:43;9.20;99.90
5358;DHT22;2702;51.014;7.170;2023-04-01T11:45:35;9.30;99.90
5358;DHT22;2702;51.014;7.170;2023-04-01T11:48:23;9.30;99.90
5358;DHT22;2702;51.014;7.170;2023-04-01T12:06:43;9.30;99.90
5358;DHT22;2702;51.014;7.170;2023-04-01T12:14:45;9.30;99.90
5358;DHT22;2702;51.014;7.170;2023-04-01T12:17:36;9.40;99.90
5358;DHT22;2702;51.014;7.170;2023-04-01T12:26:48;9.60;99.90
5358;DHT22;2702;51.014;7.170;2023-04-01T12:35:10;9.70;99.90
5358;DHT22;2702;51.014;7.170;2023-04-01T12:40:37;9.60;99.90
5358;DHT22;2702;51.014;7.170;2023-04-01T12:46:21;9.60;99.90
5358;DHT22;2702;51.014;7.170;2023-04-01T13:06:16;9.70;99.90
5358;DHT22;2702;51.014;7.170;2023-04-01T13:08:32;9.70;99.90
5358;DHT22;2702;51.014;7.170;2023-04-01T13:11:09;9.80;99.90
5358;DHT22;2702;51.014;7.170;2023-04-01T13:16:46;9.80;99.90
5358;DHT22;2702;51.014;7.170;2023-04-01T13:19:37;9.80;99.90
5358;DHT22;2702;51.014;7.170;2023-04-01T13:27:26;9.80;99.90
5358;DHT22;2702;51.014;7.170;2023-04-01T13:33:38;9.80;99.90
5358;DHT22;2702;51.014;7.170;2023-04-01T13:41:51;9.90;99.90
5358;DHT22;2702;51.014;7.170;2023-04-01T13:44:39;9.90;99.90
5358;DHT22;2702;51.014;7.170;2023-04-01T14:01:56;9.90;99.90
5358;DHT22;2702;51.014;7.170;2023-04-01T14:07:26;9.80;99.90
5358;DHT22;2702;51.014;7.170;2023-04-01T14:38:04;9.60;99.90
5358;DHT22;2702;51.014;7.170;2023-04-01T14:43:32;9.70;99.90
5358;DHT22;2702;51.014;7.170;2023-04-01T14:49:20;9.60;99.90
5358;DHT22;2702;51.014;7.170;2023-04-01T14:51:48;9.60;99.90
5358;DHT22;2702;51.014;7.170;2023-04-01T14:54:31;9.60;99.90
5358;DHT22;2702;51.014;7.170;2023-04-01T14:57:24;9.60;99.90
5358;DHT22;2702;51.014;7.170;2023-04-01T15:00:15;9.50;99.90
5358;DHT22;2702;51.014;7.170;2023-04-01T15:08:29;9.60;99.90
5358;DHT22;2702;51.014;7.170;2023-04-01T15:12:02;9.50;99.90
5358;DHT22;2702;51.014;7.170;2023-04-01T15:14:37;9.50;99.90
5358;DHT22;2702;51.014;7.170;2023-04-01T15:17:37;9.50;99.90
5358;DHT22;2702;51.014;7.170;2023-04-01T15:26:01;9.30;99.90
5358;DHT22;2702;51.014;7.170;2023-04-01T15:28:56;9.30;99.90
5358;DHT22;2702;51.014;7.170;2023-04-01T15:31:43;9.20;99.90
5358;DHT22;2702;51.014;7.170;2023-04-01T15:34:26;9.20;99.90
5358;DHT22;2702;51.014;7.170;2023-04-01T15:37:14;9.30;99.90
5358;DHT22;2702;51.014;7.170;2023-04-01T15:39:54;9.20;99.90
5358;DHT22;2702;51.014;7.170;2023-04-01T15:45:16;9.30;99.90
5358;DHT22;2702;51.014;7.170;2023-04-01T15:47:53;9.20;99.90
5358;DHT22;2702;51.014;7.170;2023-04-01T15:50:36;9.20;99.90
5358;DHT22;2702;51.014;7.170;2023-04-01T15:55:57;9.20;99.90
5358;DHT22;2702;51.014;7.170;2023-04-01T16:06:51;9.30;99.90
5358;DHT22;2702;51.014;7.170;2023-04-01T16:17:49;9.30;99.90
5358;DHT22;2702;51.014;7.170;2023-04-01T16:20:24;9.30;99.90
5358;DHT22;2702;51.014;7.170;2023-04-01T16:23:03;9.40;99.90
5358;DHT22;2702;51.014;7.170;2023-04-01T16:26:08;9.50;99.90
5358;DHT22;2702;51.014;7.170;2023-04-01T16:34:14;9.40;99.90
5358;DHT22;2702;51.014;7.170;2023-04-01T16:37:15;9.50;99.90
5358;DHT22;2702;51.014;7.170;2023-04-01T16:45:06;9.40;99.90
5358;DHT22;2702;51.014;7.170;2023-04-01T16:47:48;9.30;99.90
5358;DHT22;2702;51.014;7.170;2023-04-01T16:58:08;9.30;99.90
5358;DHT22;2702;51.014;7.170;2023-04-01T17:00:41;9.20;99.90
5358;DHT22;2702;51.014;7.170;2023-04-01T17:03:27;9.20;99.90
5358;DHT22;2702;51.014;7.170;2023-04-01T17:13:45;9.30;99.90
5358;DHT22;2702;51.014;7.170;2023-04-01T17:19:23;9.20;99.90
5358;DHT22;2702;51.014;7.170;2023-04-01T17:30:57;9.00;99.90
5358;DHT22;2702;51.014;7.170;2023-04-01T17:54:04;9.10;99.90
5358;DHT22;2702;51.014;7.170;2023-04-01T18:01:36;9.00;99.90
5358;DHT22;2702;51.014;7.170;2023-04-01T18:04:25;8.90;99.90
5358;DHT22;2702;51.014;7.170;2023-04-01T18:07:08;8.80;99.90
5358;DHT22;2702;51.014;7.170;2023-04-01T18:15:38;9.00;99.90
5358;DHT22;2702;51.014;7.170;2023-04-01T18:21:32;9.00;99.90
5358;DHT22;2702;51.014;7.170;2023-04-01T18:26:44;8.90;99.90
5358;DHT22;2702;51.014;7.170;2023-04-01T18:30:11;9.00;99.90
5358;DHT22;2702;51.014;7.170;2023-04-01T18:35:27;8.80;99.90
5358;DHT22;2702;51.014;7.170;2023-04-01T18:38:11;8.80;99.90
5358;DHT22;2702;51.014;7.170;2023-04-01T18:43:33;8.70;99.90
5358;DHT22;2702;51.014;7.170;2023-04-01T18:49:21;8.60;99.90
5358;DHT22;2702;51.014;7.170;2023-04-01T18:52:16;8.70;99.90
5358;DHT22;2702;51.014;7.170;2023-04-01T18:57:50;8.60;99.90
5358;DHT22;2702;51.014;7.170;2023-04-01T19:00:32;8.60;99.90
5358;DHT22;2702;51.014;7.170;2023-04-01T19:05:34;8.60;99.90
5358;DHT22;2702;51.014;7.170;2023-04-01T19:08:39;8.70;99.90
5358;DHT22;2702;51.014;7.170;2023-04-01T19:11:23;8.70;99.90
5358;DHT22;2702;51.014;7.170;2023-04-01T19:13:53;8.60;99.90
5358;DHT22;2702;51.014;7.170;2023-04-01T19:21:44;8.70;99.90
5358;DHT22;2702;51.014;7.170;2023-04-01T19:33:01;8.70;99.90
5358;DHT22;2702;51.014;7.170;2023-04-01T19:35:44;8.70;99.90
5358;DHT22;2702;51.014;7.170;2023-04-01T19:38:19;8.70;99.90
5358;DHT22;2702;51.014;7.170;2023-04-01T19:46:26;8.70;99.90
5358;DHT22;2702;51.014;7.170;2023-04-01T20:05:26;8.60;99.90
5358;DHT22;2702;51.014;7.170;2023-04-01T20:08:02;8.60;99.90
5358;DHT22;2702;51.014;7.170;2023-04-01T20:10:52;8.70;99.90
5358;DHT22;2702;51.014;7.170;2023-04-01T20:13:49;8.80;99.90
5358;DHT22;2702;51.014;7.170;2023-04-01T20:16:18;8.80;99.90
5358;DHT22;2702;51.014;7.170;2023-04-01T20:24:28;8.70;99.90
5358;DHT22;2702;51.014;7.170;2023-04-01T20:27:32;8.80;99.90
5358;DHT22;2702;51.014;7.170;2023-04-01T20:30:15;8.60;99.90
5358;DHT22;2702;51.014;7.170;2023-04-01T20:33:21;8.70;99.90
5358;DHT22;2702;51.014;7.170;2023-04-01T20:44:14;8.60;99.90
5358;DHT22;2702;51.014;7.170;2023-04-01T21:00:19;8.60;99.90
5358;DHT22;2702;51.014;7.170;2023-04-01T21:05:44;8.50;99.90
5358;DHT22;2702;51.014;7.170;2023-04-01T21:08:43;8.50;99.90
5358;DHT22;2702;51.014;7.170;2023-04-01T21:11:07;8.60;99.90
5358;DHT22;2702;51.014;7.170;2023-04-01T21:22:31;8.60;99.90
5358;DHT22;2702;51.014;7.170;2023-04-01T21:33:44;8.80;99.90
5358;DHT22;2702;51.014;7.170;2023-04-01T21:36:34;8.90;99.90
5358;DHT22;2702;51.014;7.170;2023-04-01T21:48:26;9.10;99.90
5358;DHT22;2702;51.014;7.170;2023-04-01T22:05:28;9.20;99.90
5358;DHT22;2702;51.014;7.170;2023-04-01T22:10:55;9.10;99.90
5358;DHT22;2702;51.014;7.170;2023-04-01T22:13:40;9.20;99.90
5358;DHT22;2702;51.014;7.170;2023-04-01T22:21:53;9.50;99.90
5358;DHT22;2702;51.014;7.170;2023-04-01T22:29:53;9.50;99.90
5358;DHT22;2702;51.014;7.170;2023-04-01T22:44:59;9.60;99.90
5358;DHT22;2702;51.014;7.170;2023-04-01T22:47:56;9.60;99.90
5358;DHT22;2702;51.014;7.170;2023-04-01T22:50:30;9.70;99.90
5358;DHT22;2702;51.014;7.170;2023-04-01T22:53:57;9.70;99.90
5358;DHT22;2702;51.014;7.170;2023-04-01T22:56:07;9.70;99.90
5358;DHT22;2702;51.014;7.170;2023-04-01T22:58:52;9.70;99.90
5358;DHT22;2702;51.014;7.170;2023-04-01T23:01:25;9.70;99.90
5358;DHT22;2702;51.014;7.170;2023-04-01T23:03:54;9.70;99.90
5358;DHT22;2702;51.014;7.170;2023-04-01T23:06:27;9.80;99.90
5358;DHT22;2702;51.014;7.170;2023-04-01T23:11:57;9.80;99.90
5358;DHT22;2702;51.014;7.170;2023-04-01T23:23:20;9.80;99.90
5358;DHT22;2702;51.014;7.170;2023-04-01T23:28:44;9.90;99.90
5358;DHT22;2702;51.014;7.170;2023-04-01T23:31:35;10.00;99.90
5358;DHT22;2702;51.014;7.170;2023-04-01T23:36:51;10.10;99.90
5358;DHT22;2702;51.014;7.170;2023-04-01T23:39:35;10.10;99.90
5358;DHT22;2702;51.014;7.170;2023-04-01T23:42:28;10.00;99.90
5358;DHT22;2702;51.014;7.170;2023-04-01T23:45:04;10.10;99.90
5358;DHT22;2702;51.014;7.170;2023-04-01T23:47:35;10.20;99.90
5358;DHT22;2702;51.014;7.170;2023-04-01T23:50:18;10.20;99.90
5358;DHT22;2702;51.014;7.170;2023-04-01T23:53:00;10.20;99.90
5358;DHT22;2702;51.014;7.170;2023-04-01T23:55:31;10.10;99.90
